sensor_id;sensor_type;location;lat;lon;timestamp;P1;durP1;ratioP1;P2;durP2;ratioP2
33830;SDS011;20137;48.834;8.732;2022-08-20T00:01:26;2.25;;;1.40;;
33830;SDS011;20137;48.834;8.732;2022-08-20T00:03:52;1.42;;;1.30;;
33830;SDS011;20137;48.834;8.732;2022-08-20T00:06:18;1.67;;;1.00;;
33830;SDS011;20137;48.834;8.732;2022-08-20T00:08:47;1.40;;;1.30;;
33830;SDS011;20137;48.834;8.732;2022-08-20T00:11:16;2.22;;;1.33;;
33830;SDS011;20137;48.834;8.732;2022-08-20T00:13:47;2.42;;;1.50;;
33830;SDS011;20137;48.834;8.732;2022-08-20T00:16:15;3.75;;;1.55;;
33830;SDS011;20137;48.834;8.732;2022-08-20T00:18:43;4.00;;;1.42;;
33830;SDS011;20137;48.834;8.732;2022-08-20T00:21:10;2.28;;;1.40;;
33830;SDS011;20137;48.834;8.732;2022-08-20T00:23:39;2.85;;;1.45;;
33830;SDS011;20137;48.834;8.732;2022-08-20T00:26:06;1.67;;;1.40;;
33830;SDS011;20137;48.834;8.732;2022-08-20T00:28:34;2.45;;;1.52;;
33830;SDS011;20137;48.834;8.732;2022-08-20T00:31:01;2.63;;;1.52;;
33830;SDS011;20137;48.834;8.732;2022-08-20T00:33:29;4.03;;;1.50;;
33830;SDS011;20137;48.834;8.732;2022-08-20T00:35:55;2.75;;;1.38;;
33830;SDS011;20137;48.834;8.732;2022-08-20T00:38:22;1.95;;;1.40;;
33830;SDS011;20137;48.834;8.732;2022-08-20T00:40:50;2.33;;;1.38;;
33830;SDS011;20137;48.834;8.732;2022-08-20T00:46:20;2.03;;;1.13;;
33830;SDS011;20137;48.834;8.732;2022-08-20T00:48:49;1.83;;;1.30;;
33830;SDS011;20137;48.834;8.732;2022-08-20T00:51:22;1.40;;;1.20;;
33830;SDS011;20137;48.834;8.732;2022-08-20T00:53:55;2.72;;;1.33;;
33830;SDS011;20137;48.834;8.732;2022-08-20T00:56:25;2.88;;;1.65;;
33830;SDS011;20137;48.834;8.732;2022-08-20T00:58:51;2.45;;;1.50;;
33830;SDS011;20137;48.834;8.732;2022-08-20T01:01:18;2.00;;;1.45;;
33830;SDS011;20137;48.834;8.732;2022-08-20T01:03:46;2.53;;;1.30;;
33830;SDS011;20137;48.834;8.732;2022-08-20T01:06:13;3.75;;;1.50;;
33830;SDS011;20137;48.834;8.732;2022-08-20T01:08:39;2.85;;;1.50;;
33830;SDS011;20137;48.834;8.732;2022-08-20T01:11:05;2.05;;;1.50;;
33830;SDS011;20137;48.834;8.732;2022-08-20T01:13:37;3.33;;;1.45;;
33830;SDS011;20137;48.834;8.732;2022-08-20T01:16:07;3.05;;;1.48;;
33830;SDS011;20137;48.834;8.732;2022-08-20T01:18:38;2.85;;;1.65;;
33830;SDS011;20137;48.834;8.732;2022-08-20T01:21:04;1.73;;;1.45;;
33830;SDS011;20137;48.834;8.732;2022-08-20T01:23:41;3.03;;;1.50;;
33830;SDS011;20137;48.834;8.732;2022-08-20T01:26:35;2.28;;;1.52;;
33830;SDS011;20137;48.834;8.732;2022-08-20T01:29:05;2.58;;;1.65;;
33830;SDS011;20137;48.834;8.732;2022-08-20T01:31:35;2.17;;;1.60;;
33830;SDS011;20137;48.834;8.732;2022-08-20T01:34:04;2.22;;;1.73;;
33830;SDS011;20137;48.834;8.732;2022-08-20T01:36:41;3.20;;;1.65;;
33830;SDS011;20137;48.834;8.732;2022-08-20T01:39:14;5.20;;;1.70;;
33830;SDS011;20137;48.834;8.732;2022-08-20T01:44:33;3.50;;;2.10;;
33830;SDS011;20137;48.834;8.732;2022-08-20T01:49:44;4.18;;;2.10;;
33830;SDS011;20137;48.834;8.732;2022-08-20T01:52:15;4.35;;;1.92;;
33830;SDS011;20137;48.834;8.732;2022-08-20T01:55:04;3.45;;;2.13;;
33830;SDS011;20137;48.834;8.732;2022-08-20T01:57:30;2.40;;;1.90;;
33830;SDS011;20137;48.834;8.732;2022-08-20T01:59:55;3.40;;;2.00;;
33830;SDS011;20137;48.834;8.732;2022-08-20T02:02:21;7.97;;;2.33;;
33830;SDS011;20137;48.834;8.732;2022-08-20T02:04:48;2.55;;;2.28;;
33830;SDS011;20137;48.834;8.732;2022-08-20T02:07:15;3.88;;;2.70;;
33830;SDS011;20137;48.834;8.732;2022-08-20T02:09:44;2.70;;;2.13;;
33830;SDS011;20137;48.834;8.732;2022-08-20T02:12:11;3.88;;;2.40;;
33830;SDS011;20137;48.834;8.732;2022-08-20T02:14:42;2.40;;;2.20;;
33830;SDS011;20137;48.834;8.732;2022-08-20T02:17:10;5.03;;;2.42;;
33830;SDS011;20137;48.834;8.732;2022-08-20T02:22:25;3.15;;;2.60;;
33830;SDS011;20137;48.834;8.732;2022-08-20T02:25:10;2.72;;;2.30;;
33830;SDS011;20137;48.834;8.732;2022-08-20T02:27:37;4.05;;;2.85;;
33830;SDS011;20137;48.834;8.732;2022-08-20T02:30:10;3.88;;;3.13;;
33830;SDS011;20137;48.834;8.732;2022-08-20T02:32:41;3.03;;;2.72;;
33830;SDS011;20137;48.834;8.732;2022-08-20T02:35:07;3.67;;;2.60;;
33830;SDS011;20137;48.834;8.732;2022-08-20T02:37:36;5.00;;;2.50;;
33830;SDS011;20137;48.834;8.732;2022-08-20T02:40:03;3.20;;;2.90;;
33830;SDS011;20137;48.834;8.732;2022-08-20T02:42:32;4.03;;;2.80;;
33830;SDS011;20137;48.834;8.732;2022-08-20T02:44:58;3.60;;;3.15;;
33830;SDS011;20137;48.834;8.732;2022-08-20T02:47:24;4.25;;;2.97;;
33830;SDS011;20137;48.834;8.732;2022-08-20T02:49:51;4.45;;;3.08;;
33830;SDS011;20137;48.834;8.732;2022-08-20T02:52:18;4.28;;;2.95;;
33830;SDS011;20137;48.834;8.732;2022-08-20T02:54:44;3.55;;;2.90;;
33830;SDS011;20137;48.834;8.732;2022-08-20T02:57:11;4.15;;;2.88;;
33830;SDS011;20137;48.834;8.732;2022-08-20T02:59:37;3.92;;;2.60;;
33830;SDS011;20137;48.834;8.732;2022-08-20T03:02:03;3.17;;;2.88;;
33830;SDS011;20137;48.834;8.732;2022-08-20T03:04:29;6.57;;;2.55;;
33830;SDS011;20137;48.834;8.732;2022-08-20T03:06:55;3.80;;;3.15;;
33830;SDS011;20137;48.834;8.732;2022-08-20T03:09:22;5.13;;;3.20;;
33830;SDS011;20137;48.834;8.732;2022-08-20T03:11:47;4.50;;;3.10;;
33830;SDS011;20137;48.834;8.732;2022-08-20T03:14:13;4.22;;;3.05;;
33830;SDS011;20137;48.834;8.732;2022-08-20T03:16:39;3.97;;;3.58;;
33830;SDS011;20137;48.834;8.732;2022-08-20T03:19:04;5.38;;;4.40;;
33830;SDS011;20137;48.834;8.732;2022-08-20T03:21:30;4.47;;;3.60;;
33830;SDS011;20137;48.834;8.732;2022-08-20T03:23:56;5.03;;;3.83;;
33830;SDS011;20137;48.834;8.732;2022-08-20T03:26:21;3.80;;;3.35;;
33830;SDS011;20137;48.834;8.732;2022-08-20T03:28:47;4.47;;;3.78;;
33830;SDS011;20137;48.834;8.732;2022-08-20T03:31:15;6.40;;;3.83;;
33830;SDS011;20137;48.834;8.732;2022-08-20T03:33:41;4.20;;;3.70;;
33830;SDS011;20137;48.834;8.732;2022-08-20T03:36:07;5.22;;;3.65;;
33830;SDS011;20137;48.834;8.732;2022-08-20T03:38:33;6.82;;;3.72;;
33830;SDS011;20137;48.834;8.732;2022-08-20T03:40:59;6.32;;;4.18;;
33830;SDS011;20137;48.834;8.732;2022-08-20T03:43:27;6.93;;;4.72;;
33830;SDS011;20137;48.834;8.732;2022-08-20T03:45:53;6.97;;;4.05;;
33830;SDS011;20137;48.834;8.732;2022-08-20T03:48:19;9.32;;;4.28;;
33830;SDS011;20137;48.834;8.732;2022-08-20T03:50:45;5.43;;;3.78;;
33830;SDS011;20137;48.834;8.732;2022-08-20T03:53:12;8.90;;;4.05;;
33830;SDS011;20137;48.834;8.732;2022-08-20T03:55:38;7.05;;;4.30;;
33830;SDS011;20137;48.834;8.732;2022-08-20T03:58:06;6.93;;;4.50;;
33830;SDS011;20137;48.834;8.732;2022-08-20T04:00:35;5.60;;;3.97;;
33830;SDS011;20137;48.834;8.732;2022-08-20T04:03:03;9.05;;;4.57;;
33830;SDS011;20137;48.834;8.732;2022-08-20T04:05:32;4.80;;;3.80;;
33830;SDS011;20137;48.834;8.732;2022-08-20T04:07:59;6.03;;;4.15;;
33830;SDS011;20137;48.834;8.732;2022-08-20T04:10:26;7.60;;;4.10;;
33830;SDS011;20137;48.834;8.732;2022-08-20T04:12:53;5.35;;;4.63;;
33830;SDS011;20137;48.834;8.732;2022-08-20T04:15:19;11.60;;;4.80;;
33830;SDS011;20137;48.834;8.732;2022-08-20T04:17:46;8.88;;;4.22;;
33830;SDS011;20137;48.834;8.732;2022-08-20T04:20:15;5.60;;;4.65;;
33830;SDS011;20137;48.834;8.732;2022-08-20T04:22:43;6.32;;;4.93;;
33830;SDS011;20137;48.834;8.732;2022-08-20T04:25:10;5.75;;;4.32;;
33830;SDS011;20137;48.834;8.732;2022-08-20T04:27:36;6.97;;;4.75;;
33830;SDS011;20137;48.834;8.732;2022-08-20T04:30:04;6.47;;;4.75;;
33830;SDS011;20137;48.834;8.732;2022-08-20T04:32:33;6.18;;;4.80;;
33830;SDS011;20137;48.834;8.732;2022-08-20T04:35:01;6.60;;;4.90;;
33830;SDS011;20137;48.834;8.732;2022-08-20T04:37:31;7.03;;;5.25;;
33830;SDS011;20137;48.834;8.732;2022-08-20T04:39:57;8.43;;;4.80;;
33830;SDS011;20137;48.834;8.732;2022-08-20T04:42:47;8.52;;;5.05;;
33830;SDS011;20137;48.834;8.732;2022-08-20T04:45:12;9.43;;;5.28;;
33830;SDS011;20137;48.834;8.732;2022-08-20T04:47:38;6.07;;;4.75;;
33830;SDS011;20137;48.834;8.732;2022-08-20T04:50:06;8.05;;;4.70;;
33830;SDS011;20137;48.834;8.732;2022-08-20T04:52:33;6.15;;;4.90;;
33830;SDS011;20137;48.834;8.732;2022-08-20T04:55:00;8.75;;;4.82;;
33830;SDS011;20137;48.834;8.732;2022-08-20T04:57:26;6.10;;;4.28;;
33830;SDS011;20137;48.834;8.732;2022-08-20T04:59:52;5.85;;;4.47;;
33830;SDS011;20137;48.834;8.732;2022-08-20T05:02:18;7.90;;;4.70;;
33830;SDS011;20137;48.834;8.732;2022-08-20T05:04:45;5.55;;;4.35;;
33830;SDS011;20137;48.834;8.732;2022-08-20T05:07:11;5.20;;;4.30;;
33830;SDS011;20137;48.834;8.732;2022-08-20T05:09:38;5.93;;;4.20;;
33830;SDS011;20137;48.834;8.732;2022-08-20T05:12:05;8.45;;;4.40;;
33830;SDS011;20137;48.834;8.732;2022-08-20T05:14:31;4.82;;;3.70;;
33830;SDS011;20137;48.834;8.732;2022-08-20T05:16:56;4.70;;;3.92;;
33830;SDS011;20137;48.834;8.732;2022-08-20T05:19:22;5.10;;;4.05;;
33830;SDS011;20137;48.834;8.732;2022-08-20T05:21:48;5.50;;;4.22;;
33830;SDS011;20137;48.834;8.732;2022-08-20T05:24:17;7.50;;;4.18;;
33830;SDS011;20137;48.834;8.732;2022-08-20T05:26:43;8.15;;;3.70;;
33830;SDS011;20137;48.834;8.732;2022-08-20T05:29:09;5.97;;;4.25;;
33830;SDS011;20137;48.834;8.732;2022-08-20T05:31:35;4.32;;;3.92;;
33830;SDS011;20137;48.834;8.732;2022-08-20T05:34:03;7.85;;;4.10;;
33830;SDS011;20137;48.834;8.732;2022-08-20T05:36:34;6.15;;;4.05;;
33830;SDS011;20137;48.834;8.732;2022-08-20T05:39:00;5.97;;;3.80;;
33830;SDS011;20137;48.834;8.732;2022-08-20T05:41:26;8.18;;;4.03;;
33830;SDS011;20137;48.834;8.732;2022-08-20T05:43:53;11.38;;;4.28;;
33830;SDS011;20137;48.834;8.732;2022-08-20T05:46:19;4.47;;;3.38;;
33830;SDS011;20137;48.834;8.732;2022-08-20T05:48:45;5.15;;;4.00;;
33830;SDS011;20137;48.834;8.732;2022-08-20T05:51:11;5.55;;;4.03;;
33830;SDS011;20137;48.834;8.732;2022-08-20T05:53:36;7.00;;;4.07;;
33830;SDS011;20137;48.834;8.732;2022-08-20T05:56:02;6.43;;;4.20;;
33830;SDS011;20137;48.834;8.732;2022-08-20T05:58:28;7.60;;;4.07;;
33830;SDS011;20137;48.834;8.732;2022-08-20T06:00:55;5.85;;;4.15;;
33830;SDS011;20137;48.834;8.732;2022-08-20T06:03:20;5.03;;;4.18;;
33830;SDS011;20137;48.834;8.732;2022-08-20T06:06:05;7.32;;;4.60;;
33830;SDS011;20137;48.834;8.732;2022-08-20T06:08:32;5.55;;;4.28;;
33830;SDS011;20137;48.834;8.732;2022-08-20T06:10:58;5.07;;;3.97;;
33830;SDS011;20137;48.834;8.732;2022-08-20T06:13:24;6.60;;;4.03;;
33830;SDS011;20137;48.834;8.732;2022-08-20T06:15:51;4.57;;;4.10;;
33830;SDS011;20137;48.834;8.732;2022-08-20T06:18:17;4.28;;;3.75;;
33830;SDS011;20137;48.834;8.732;2022-08-20T06:20:42;4.97;;;3.83;;
33830;SDS011;20137;48.834;8.732;2022-08-20T06:23:09;5.05;;;3.97;;
33830;SDS011;20137;48.834;8.732;2022-08-20T06:25:35;6.40;;;4.22;;
33830;SDS011;20137;48.834;8.732;2022-08-20T06:28:01;5.43;;;4.15;;
33830;SDS011;20137;48.834;8.732;2022-08-20T06:30:27;6.05;;;4.60;;
33830;SDS011;20137;48.834;8.732;2022-08-20T06:32:56;6.22;;;4.68;;
33830;SDS011;20137;48.834;8.732;2022-08-20T06:35:22;7.25;;;4.85;;
33830;SDS011;20137;48.834;8.732;2022-08-20T06:37:49;5.32;;;4.47;;
33830;SDS011;20137;48.834;8.732;2022-08-20T06:40:18;5.50;;;4.45;;
33830;SDS011;20137;48.834;8.732;2022-08-20T06:42:47;5.93;;;4.57;;
33830;SDS011;20137;48.834;8.732;2022-08-20T06:45:14;8.07;;;4.70;;
33830;SDS011;20137;48.834;8.732;2022-08-20T06:47:43;7.45;;;4.68;;
33830;SDS011;20137;48.834;8.732;2022-08-20T06:50:11;5.88;;;4.80;;
33830;SDS011;20137;48.834;8.732;2022-08-20T06:52:41;8.05;;;4.25;;
33830;SDS011;20137;48.834;8.732;2022-08-20T06:55:07;5.85;;;4.35;;
33830;SDS011;20137;48.834;8.732;2022-08-20T06:57:35;6.50;;;4.70;;
33830;SDS011;20137;48.834;8.732;2022-08-20T07:00:12;9.48;;;4.78;;
33830;SDS011;20137;48.834;8.732;2022-08-20T07:02:40;6.10;;;3.90;;
33830;SDS011;20137;48.834;8.732;2022-08-20T07:05:06;7.97;;;4.03;;
33830;SDS011;20137;48.834;8.732;2022-08-20T07:07:33;5.25;;;4.03;;
33830;SDS011;20137;48.834;8.732;2022-08-20T07:10:08;4.22;;;3.60;;
33830;SDS011;20137;48.834;8.732;2022-08-20T07:12:36;4.57;;;3.70;;
33830;SDS011;20137;48.834;8.732;2022-08-20T07:15:08;7.57;;;4.28;;
33830;SDS011;20137;48.834;8.732;2022-08-20T07:17:35;5.72;;;4.60;;
33830;SDS011;20137;48.834;8.732;2022-08-20T07:20:09;9.98;;;5.32;;
33830;SDS011;20137;48.834;8.732;2022-08-20T07:22:38;8.88;;;4.60;;
33830;SDS011;20137;48.834;8.732;2022-08-20T07:25:06;5.53;;;4.85;;
33830;SDS011;20137;48.834;8.732;2022-08-20T07:27:34;7.38;;;4.70;;
33830;SDS011;20137;48.834;8.732;2022-08-20T07:29:59;5.50;;;3.95;;
33830;SDS011;20137;48.834;8.732;2022-08-20T07:32:44;5.53;;;4.13;;
33830;SDS011;20137;48.834;8.732;2022-08-20T07:35:12;6.40;;;4.07;;
33830;SDS011;20137;48.834;8.732;2022-08-20T07:37:40;8.55;;;3.90;;
33830;SDS011;20137;48.834;8.732;2022-08-20T07:40:08;6.10;;;4.00;;
33830;SDS011;20137;48.834;8.732;2022-08-20T07:42:36;4.28;;;3.38;;
33830;SDS011;20137;48.834;8.732;2022-08-20T07:45:04;6.03;;;3.60;;
33830;SDS011;20137;48.834;8.732;2022-08-20T07:47:31;5.43;;;3.40;;
33830;SDS011;20137;48.834;8.732;2022-08-20T07:50:00;5.25;;;3.42;;
33830;SDS011;20137;48.834;8.732;2022-08-20T07:52:26;5.15;;;3.55;;
33830;SDS011;20137;48.834;8.732;2022-08-20T07:54:52;5.30;;;3.05;;
33830;SDS011;20137;48.834;8.732;2022-08-20T07:57:17;3.63;;;3.25;;
33830;SDS011;20137;48.834;8.732;2022-08-20T07:59:43;4.63;;;3.50;;
33830;SDS011;20137;48.834;8.732;2022-08-20T08:02:10;6.18;;;2.80;;
33830;SDS011;20137;48.834;8.732;2022-08-20T08:04:36;5.57;;;3.15;;
33830;SDS011;20137;48.834;8.732;2022-08-20T08:07:05;4.82;;;2.70;;
33830;SDS011;20137;48.834;8.732;2022-08-20T08:09:31;4.15;;;3.05;;
33830;SDS011;20137;48.834;8.732;2022-08-20T08:11:58;4.45;;;2.90;;
33830;SDS011;20137;48.834;8.732;2022-08-20T08:14:27;6.45;;;2.75;;
33830;SDS011;20137;48.834;8.732;2022-08-20T08:16:56;2.75;;;2.42;;
33830;SDS011;20137;48.834;8.732;2022-08-20T08:19:26;4.93;;;2.90;;
33830;SDS011;20137;48.834;8.732;2022-08-20T08:22:03;3.38;;;2.60;;
33830;SDS011;20137;48.834;8.732;2022-08-20T08:24:36;3.25;;;2.50;;
33830;SDS011;20137;48.834;8.732;2022-08-20T08:27:02;3.55;;;2.70;;
33830;SDS011;20137;48.834;8.732;2022-08-20T08:29:28;5.38;;;2.80;;
33830;SDS011;20137;48.834;8.732;2022-08-20T08:31:54;3.85;;;2.90;;
33830;SDS011;20137;48.834;8.732;2022-08-20T08:34:20;3.50;;;2.17;;
33830;SDS011;20137;48.834;8.732;2022-08-20T08:36:49;4.55;;;2.47;;
33830;SDS011;20137;48.834;8.732;2022-08-20T08:39:15;3.63;;;2.50;;
33830;SDS011;20137;48.834;8.732;2022-08-20T08:41:42;2.45;;;2.22;;
33830;SDS011;20137;48.834;8.732;2022-08-20T08:44:36;2.83;;;2.28;;
33830;SDS011;20137;48.834;8.732;2022-08-20T08:47:25;3.85;;;2.80;;
33830;SDS011;20137;48.834;8.732;2022-08-20T08:49:53;2.58;;;2.38;;
33830;SDS011;20137;48.834;8.732;2022-08-20T08:52:21;3.28;;;2.65;;
33830;SDS011;20137;48.834;8.732;2022-08-20T08:54:53;4.47;;;2.50;;
33830;SDS011;20137;48.834;8.732;2022-08-20T08:57:22;4.30;;;2.22;;
33830;SDS011;20137;48.834;8.732;2022-08-20T08:59:51;2.53;;;2.05;;
33830;SDS011;20137;48.834;8.732;2022-08-20T09:02:21;4.63;;;2.60;;
33830;SDS011;20137;48.834;8.732;2022-08-20T09:04:50;3.95;;;2.35;;
33830;SDS011;20137;48.834;8.732;2022-08-20T09:07:20;3.50;;;2.45;;
33830;SDS011;20137;48.834;8.732;2022-08-20T09:09:48;4.40;;;2.38;;
33830;SDS011;20137;48.834;8.732;2022-08-20T09:12:19;3.95;;;2.90;;
33830;SDS011;20137;48.834;8.732;2022-08-20T09:14:46;2.50;;;2.28;;
33830;SDS011;20137;48.834;8.732;2022-08-20T09:17:14;3.65;;;2.60;;
33830;SDS011;20137;48.834;8.732;2022-08-20T09:19:40;4.90;;;2.88;;
33830;SDS011;20137;48.834;8.732;2022-08-20T09:22:11;3.92;;;2.95;;
33830;SDS011;20137;48.834;8.732;2022-08-20T09:24:38;4.20;;;2.90;;
33830;SDS011;20137;48.834;8.732;2022-08-20T09:27:04;5.18;;;3.13;;
33830;SDS011;20137;48.834;8.732;2022-08-20T09:29:30;5.70;;;3.50;;
33830;SDS011;20137;48.834;8.732;2022-08-20T09:32:06;4.72;;;2.60;;
33830;SDS011;20137;48.834;8.732;2022-08-20T09:34:38;4.68;;;2.65;;
33830;SDS011;20137;48.834;8.732;2022-08-20T09:37:07;5.55;;;2.55;;
33830;SDS011;20137;48.834;8.732;2022-08-20T09:39:33;3.72;;;3.10;;
33830;SDS011;20137;48.834;8.732;2022-08-20T09:42:10;3.55;;;3.08;;
33830;SDS011;20137;48.834;8.732;2022-08-20T09:44:38;5.97;;;3.40;;
33830;SDS011;20137;48.834;8.732;2022-08-20T09:47:05;3.80;;;3.05;;
33830;SDS011;20137;48.834;8.732;2022-08-20T09:49:31;4.88;;;3.65;;
33830;SDS011;20137;48.834;8.732;2022-08-20T09:51:57;5.18;;;3.30;;
33830;SDS011;20137;48.834;8.732;2022-08-20T09:54:25;2.90;;;2.65;;
33830;SDS011;20137;48.834;8.732;2022-08-20T09:56:54;3.83;;;2.92;;
33830;SDS011;20137;48.834;8.732;2022-08-20T09:59:26;2.38;;;2.17;;
33830;SDS011;20137;48.834;8.732;2022-08-20T10:01:53;2.67;;;2.40;;
33830;SDS011;20137;48.834;8.732;2022-08-20T10:04:19;2.75;;;1.95;;
33830;SDS011;20137;48.834;8.732;2022-08-20T10:06:45;4.00;;;2.20;;
33830;SDS011;20137;48.834;8.732;2022-08-20T10:09:11;2.47;;;1.60;;
33830;SDS011;20137;48.834;8.732;2022-08-20T10:11:36;1.83;;;1.40;;
33830;SDS011;20137;48.834;8.732;2022-08-20T10:14:02;2.03;;;1.60;;
33830;SDS011;20137;48.834;8.732;2022-08-20T10:16:28;2.85;;;1.30;;
33830;SDS011;20137;48.834;8.732;2022-08-20T10:18:54;2.30;;;1.17;;
33830;SDS011;20137;48.834;8.732;2022-08-20T10:21:20;1.42;;;1.13;;
33830;SDS011;20137;48.834;8.732;2022-08-20T10:23:52;1.98;;;1.33;;
33830;SDS011;20137;48.834;8.732;2022-08-20T10:26:17;1.63;;;1.20;;
33830;SDS011;20137;48.834;8.732;2022-08-20T10:28:43;1.17;;;0.98;;
33830;SDS011;20137;48.834;8.732;2022-08-20T10:31:09;1.40;;;1.10;;
33830;SDS011;20137;48.834;8.732;2022-08-20T10:33:36;1.48;;;1.00;;
33830;SDS011;20137;48.834;8.732;2022-08-20T10:36:21;0.80;;;0.80;;
33830;SDS011;20137;48.834;8.732;2022-08-20T10:38:46;1.15;;;0.80;;
33830;SDS011;20137;48.834;8.732;2022-08-20T10:41:13;0.85;;;0.60;;
33830;SDS011;20137;48.834;8.732;2022-08-20T10:43:38;1.65;;;0.90;;
33830;SDS011;20137;48.834;8.732;2022-08-20T10:46:04;0.80;;;0.80;;
33830;SDS011;20137;48.834;8.732;2022-08-20T10:48:30;0.80;;;0.80;;
33830;SDS011;20137;48.834;8.732;2022-08-20T10:50:56;1.52;;;0.70;;
33830;SDS011;20137;48.834;8.732;2022-08-20T10:53:21;1.00;;;0.50;;
33830;SDS011;20137;48.834;8.732;2022-08-20T10:55:47;0.63;;;0.63;;
33830;SDS011;20137;48.834;8.732;2022-08-20T10:58:13;0.50;;;0.50;;
33830;SDS011;20137;48.834;8.732;2022-08-20T11:00:39;1.50;;;0.73;;
33830;SDS011;20137;48.834;8.732;2022-08-20T11:03:05;0.95;;;0.60;;
33830;SDS011;20137;48.834;8.732;2022-08-20T11:05:31;4.88;;;0.70;;
33830;SDS011;20137;48.834;8.732;2022-08-20T11:07:57;0.50;;;0.50;;
33830;SDS011;20137;48.834;8.732;2022-08-20T11:10:26;0.75;;;0.70;;
33830;SDS011;20137;48.834;8.732;2022-08-20T11:12:53;0.90;;;0.70;;
33830;SDS011;20137;48.834;8.732;2022-08-20T11:15:18;0.70;;;0.70;;
33830;SDS011;20137;48.834;8.732;2022-08-20T11:17:44;0.60;;;0.60;;
33830;SDS011;20137;48.834;8.732;2022-08-20T11:20:11;1.00;;;0.90;;
33830;SDS011;20137;48.834;8.732;2022-08-20T11:22:39;1.25;;;1.15;;
33830;SDS011;20137;48.834;8.732;2022-08-20T11:25:05;1.15;;;0.75;;
33830;SDS011;20137;48.834;8.732;2022-08-20T11:27:41;1.65;;;1.00;;
33830;SDS011;20137;48.834;8.732;2022-08-20T11:30:11;1.38;;;1.27;;
33830;SDS011;20137;48.834;8.732;2022-08-20T11:32:40;2.90;;;1.17;;
33830;SDS011;20137;48.834;8.732;2022-08-20T11:35:06;2.05;;;1.20;;
33830;SDS011;20137;48.834;8.732;2022-08-20T11:37:32;1.10;;;1.00;;
33830;SDS011;20137;48.834;8.732;2022-08-20T11:39:58;1.05;;;0.88;;
33830;SDS011;20137;48.834;8.732;2022-08-20T11:42:23;2.30;;;1.20;;
33830;SDS011;20137;48.834;8.732;2022-08-20T11:44:49;0.70;;;0.70;;
33830;SDS011;20137;48.834;8.732;2022-08-20T11:47:28;0.80;;;0.80;;
33830;SDS011;20137;48.834;8.732;2022-08-20T11:50:04;1.77;;;1.17;;
33830;SDS011;20137;48.834;8.732;2022-08-20T11:52:32;2.22;;;1.25;;
33830;SDS011;20137;48.834;8.732;2022-08-20T11:54:58;2.42;;;1.50;;
33830;SDS011;20137;48.834;8.732;2022-08-20T11:57:29;1.95;;;1.25;;
33830;SDS011;20137;48.834;8.732;2022-08-20T11:59:56;3.83;;;1.58;;
33830;SDS011;20137;48.834;8.732;2022-08-20T12:02:23;2.50;;;1.63;;
33830;SDS011;20137;48.834;8.732;2022-08-20T12:04:49;1.80;;;1.70;;
33830;SDS011;20137;48.834;8.732;2022-08-20T12:07:16;3.67;;;1.70;;
33830;SDS011;20137;48.834;8.732;2022-08-20T12:09:44;1.80;;;1.30;;
33830;SDS011;20137;48.834;8.732;2022-08-20T12:12:10;2.65;;;1.45;;
33830;SDS011;20137;48.834;8.732;2022-08-20T12:14:37;1.73;;;1.30;;
33830;SDS011;20137;48.834;8.732;2022-08-20T12:17:06;2.80;;;1.13;;
33830;SDS011;20137;48.834;8.732;2022-08-20T12:19:37;1.95;;;1.13;;
33830;SDS011;20137;48.834;8.732;2022-08-20T12:22:04;2.70;;;1.10;;
33830;SDS011;20137;48.834;8.732;2022-08-20T12:24:30;1.30;;;1.20;;
33830;SDS011;20137;48.834;8.732;2022-08-20T12:27:18;1.63;;;1.40;;
33830;SDS011;20137;48.834;8.732;2022-08-20T12:29:50;1.40;;;1.30;;
33830;SDS011;20137;48.834;8.732;2022-08-20T12:32:18;3.50;;;1.48;;
33830;SDS011;20137;48.834;8.732;2022-08-20T12:34:46;1.48;;;1.20;;
33830;SDS011;20137;48.834;8.732;2022-08-20T12:37:13;1.75;;;1.27;;
33830;SDS011;20137;48.834;8.732;2022-08-20T12:39:44;1.63;;;1.52;;
33830;SDS011;20137;48.834;8.732;2022-08-20T12:42:12;1.25;;;1.05;;
33830;SDS011;20137;48.834;8.732;2022-08-20T12:44:39;1.88;;;1.30;;
33830;SDS011;20137;48.834;8.732;2022-08-20T12:49:49;1.90;;;1.40;;
33830;SDS011;20137;48.834;8.732;2022-08-20T12:52:17;1.77;;;1.10;;
33830;SDS011;20137;48.834;8.732;2022-08-20T12:54:44;1.17;;;1.08;;
33830;SDS011;20137;48.834;8.732;2022-08-20T12:57:21;2.33;;;1.55;;
33830;SDS011;20137;48.834;8.732;2022-08-20T12:59:57;1.67;;;0.90;;
33830;SDS011;20137;48.834;8.732;2022-08-20T13:02:25;1.25;;;1.00;;
33830;SDS011;20137;48.834;8.732;2022-08-20T13:04:51;1.20;;;1.10;;
33830;SDS011;20137;48.834;8.732;2022-08-20T13:07:19;2.30;;;1.25;;
33830;SDS011;20137;48.834;8.732;2022-08-20T13:09:45;0.80;;;0.80;;
33830;SDS011;20137;48.834;8.732;2022-08-20T13:12:11;1.05;;;0.95;;
33830;SDS011;20137;48.834;8.732;2022-08-20T13:14:38;1.83;;;1.33;;
33830;SDS011;20137;48.834;8.732;2022-08-20T13:17:04;1.77;;;0.85;;
33830;SDS011;20137;48.834;8.732;2022-08-20T13:19:31;0.88;;;0.88;;
33830;SDS011;20137;48.834;8.732;2022-08-20T13:21:59;1.20;;;1.10;;
33830;SDS011;20137;48.834;8.732;2022-08-20T13:24:25;1.30;;;1.20;;
33830;SDS011;20137;48.834;8.732;2022-08-20T13:26:52;2.03;;;1.33;;
33830;SDS011;20137;48.834;8.732;2022-08-20T13:29:18;1.13;;;0.70;;
33830;SDS011;20137;48.834;8.732;2022-08-20T13:31:44;2.85;;;0.80;;
33830;SDS011;20137;48.834;8.732;2022-08-20T13:34:10;1.00;;;0.60;;
33830;SDS011;20137;48.834;8.732;2022-08-20T13:36:36;0.93;;;0.80;;
33830;SDS011;20137;48.834;8.732;2022-08-20T13:39:03;1.30;;;0.70;;
33830;SDS011;20137;48.834;8.732;2022-08-20T13:41:30;0.90;;;0.55;;
33830;SDS011;20137;48.834;8.732;2022-08-20T13:43:57;1.10;;;0.80;;
33830;SDS011;20137;48.834;8.732;2022-08-20T13:46:22;1.10;;;1.00;;
33830;SDS011;20137;48.834;8.732;2022-08-20T13:48:48;1.85;;;0.95;;
33830;SDS011;20137;48.834;8.732;2022-08-20T13:51:14;0.70;;;0.70;;
33830;SDS011;20137;48.834;8.732;2022-08-20T13:53:39;1.33;;;0.80;;
33830;SDS011;20137;48.834;8.732;2022-08-20T13:56:05;0.93;;;0.85;;
33830;SDS011;20137;48.834;8.732;2022-08-20T13:58:31;1.10;;;0.60;;
33830;SDS011;20137;48.834;8.732;2022-08-20T14:00:56;1.98;;;1.30;;
33830;SDS011;20137;48.834;8.732;2022-08-20T14:03:22;0.70;;;0.60;;
33830;SDS011;20137;48.834;8.732;2022-08-20T14:05:48;1.15;;;0.40;;
33830;SDS011;20137;48.834;8.732;2022-08-20T14:08:15;0.80;;;0.60;;
33830;SDS011;20137;48.834;8.732;2022-08-20T14:10:45;0.60;;;0.50;;
33830;SDS011;20137;48.834;8.732;2022-08-20T14:13:14;0.63;;;0.60;;
33830;SDS011;20137;48.834;8.732;2022-08-20T14:15:44;0.77;;;0.50;;
33830;SDS011;20137;48.834;8.732;2022-08-20T14:18:10;1.25;;;0.70;;
33830;SDS011;20137;48.834;8.732;2022-08-20T14:20:36;1.23;;;0.95;;
33830;SDS011;20137;48.834;8.732;2022-08-20T14:23:02;0.60;;;0.60;;
33830;SDS011;20137;48.834;8.732;2022-08-20T14:25:28;1.10;;;0.77;;
33830;SDS011;20137;48.834;8.732;2022-08-20T14:27:55;1.50;;;0.82;;
33830;SDS011;20137;48.834;8.732;2022-08-20T14:30:25;1.15;;;0.75;;
33830;SDS011;20137;48.834;8.732;2022-08-20T14:32:53;3.33;;;0.80;;
33830;SDS011;20137;48.834;8.732;2022-08-20T14:35:20;0.93;;;0.70;;
33830;SDS011;20137;48.834;8.732;2022-08-20T14:37:47;1.77;;;1.00;;
33830;SDS011;20137;48.834;8.732;2022-08-20T14:40:17;1.33;;;0.73;;
33830;SDS011;20137;48.834;8.732;2022-08-20T14:42:44;0.70;;;0.60;;
33830;SDS011;20137;48.834;8.732;2022-08-20T14:45:11;1.20;;;0.75;;
33830;SDS011;20137;48.834;8.732;2022-08-20T14:47:41;1.63;;;1.13;;
33830;SDS011;20137;48.834;8.732;2022-08-20T14:50:14;2.80;;;1.40;;
33830;SDS011;20137;48.834;8.732;2022-08-20T14:52:41;1.10;;;1.00;;
33830;SDS011;20137;48.834;8.732;2022-08-20T14:55:09;1.02;;;0.88;;
33830;SDS011;20137;48.834;8.732;2022-08-20T14:57:37;1.42;;;0.85;;
33830;SDS011;20137;48.834;8.732;2022-08-20T15:00:04;1.35;;;0.90;;
33830;SDS011;20137;48.834;8.732;2022-08-20T15:02:35;2.05;;;1.05;;
33830;SDS011;20137;48.834;8.732;2022-08-20T15:05:02;1.30;;;0.98;;
33830;SDS011;20137;48.834;8.732;2022-08-20T15:07:30;4.50;;;1.33;;